sensor_id;sensor_type;location;lat;lon;timestamp;P1;durP1;ratioP1;P2;durP2;ratioP2
66521;SDS011;53349;53.538;8.584;2024-01-10T00:00:17;33.80;;;15.17;;
66521;SDS011;53349;53.538;8.584;2024-01-10T00:02:42;38.40;;;15.40;;
66521;SDS011;53349;53.538;8.584;2024-01-10T00:05:08;44.38;;;17.42;;
66521;SDS011;53349;53.538;8.584;2024-01-10T00:07:35;37.17;;;14.73;;
66521;SDS011;53349;53.538;8.584;2024-01-10T00:10:02;43.03;;;17.27;;
66521;SDS011;53349;53.538;8.584;2024-01-10T00:12:29;42.00;;;16.47;;
66521;SDS011;53349;53.538;8.584;2024-01-10T00:14:57;39.10;;;15.57;;
66521;SDS011;53349;53.538;8.584;2024-01-10T00:17:22;38.85;;;15.25;;
66521;SDS011;53349;53.538;8.584;2024-01-10T00:19:48;40.50;;;15.32;;
66521;SDS011;53349;53.538;8.584;2024-01-10T00:22:14;40.93;;;15.37;;
66521;SDS011;53349;53.538;8.584;2024-01-10T00:24:40;39.47;;;14.80;;
66521;SDS011;53349;53.538;8.584;2024-01-10T00:27:07;46.08;;;16.15;;
66521;SDS011;53349;53.538;8.584;2024-01-10T00:29:34;42.65;;;13.98;;
66521;SDS011;53349;53.538;8.584;2024-01-10T00:31:59;41.55;;;14.15;;
66521;SDS011;53349;53.538;8.584;2024-01-10T00:34:26;47.53;;;15.43;;
66521;SDS011;53349;53.538;8.584;2024-01-10T00:36:53;42.27;;;14.43;;
66521;SDS011;53349;53.538;8.584;2024-01-10T00:39:20;40.17;;;14.25;;
66521;SDS011;53349;53.538;8.584;2024-01-10T00:41:46;40.10;;;14.27;;
66521;SDS011;53349;53.538;8.584;2024-01-10T00:44:11;36.60;;;13.07;;
66521;SDS011;53349;53.538;8.584;2024-01-10T00:46:36;47.03;;;14.37;;
66521;SDS011;53349;53.538;8.584;2024-01-10T00:49:01;41.07;;;13.43;;
66521;SDS011;53349;53.538;8.584;2024-01-10T00:51:27;43.63;;;14.03;;
66521;SDS011;53349;53.538;8.584;2024-01-10T00:53:52;40.33;;;13.83;;
66521;SDS011;53349;53.538;8.584;2024-01-10T00:56:18;37.87;;;12.10;;
66521;SDS011;53349;53.538;8.584;2024-01-10T00:58:43;35.90;;;12.85;;
66521;SDS011;53349;53.538;8.584;2024-01-10T01:01:10;42.23;;;14.07;;
66521;SDS011;53349;53.538;8.584;2024-01-10T01:03:36;35.28;;;13.35;;
66521;SDS011;53349;53.538;8.584;2024-01-10T01:06:02;37.03;;;11.40;;
66521;SDS011;53349;53.538;8.584;2024-01-10T01:08:27;42.47;;;13.20;;
66521;SDS011;53349;53.538;8.584;2024-01-10T01:10:54;43.45;;;12.18;;
66521;SDS011;53349;53.538;8.584;2024-01-10T01:13:19;44.50;;;12.27;;
66521;SDS011;53349;53.538;8.584;2024-01-10T01:15:45;34.23;;;10.63;;
66521;SDS011;53349;53.538;8.584;2024-01-10T01:18:12;33.00;;;10.87;;
66521;SDS011;53349;53.538;8.584;2024-01-10T01:20:38;31.70;;;9.68;;
66521;SDS011;53349;53.538;8.584;2024-01-10T01:23:03;36.40;;;11.63;;
66521;SDS011;53349;53.538;8.584;2024-01-10T01:25:29;34.97;;;9.63;;
66521;SDS011;53349;53.538;8.584;2024-01-10T01:27:55;34.97;;;11.07;;
66521;SDS011;53349;53.538;8.584;2024-01-10T01:30:22;32.53;;;10.65;;
66521;SDS011;53349;53.538;8.584;2024-01-10T01:32:47;33.33;;;10.30;;
66521;SDS011;53349;53.538;8.584;2024-01-10T01:35:12;38.00;;;11.80;;
66521;SDS011;53349;53.538;8.584;2024-01-10T01:37:37;30.50;;;9.27;;
66521;SDS011;53349;53.538;8.584;2024-01-10T01:40:03;39.43;;;10.87;;
66521;SDS011;53349;53.538;8.584;2024-01-10T01:42:29;34.42;;;10.85;;
66521;SDS011;53349;53.538;8.584;2024-01-10T01:44:55;36.47;;;10.50;;
66521;SDS011;53349;53.538;8.584;2024-01-10T01:47:20;31.57;;;9.80;;
66521;SDS011;53349;53.538;8.584;2024-01-10T01:49:46;31.52;;;10.20;;
66521;SDS011;53349;53.538;8.584;2024-01-10T01:52:15;35.17;;;10.48;;
66521;SDS011;53349;53.538;8.584;2024-01-10T01:54:42;33.83;;;10.17;;
66521;SDS011;53349;53.538;8.584;2024-01-10T01:57:07;29.73;;;9.45;;
66521;SDS011;53349;53.538;8.584;2024-01-10T01:59:32;33.20;;;9.70;;
66521;SDS011;53349;53.538;8.584;2024-01-10T02:01:58;31.63;;;9.65;;
66521;SDS011;53349;53.538;8.584;2024-01-10T02:04:27;32.42;;;10.15;;
66521;SDS011;53349;53.538;8.584;2024-01-10T02:06:53;30.00;;;8.80;;
66521;SDS011;53349;53.538;8.584;2024-01-10T02:09:18;32.57;;;10.20;;
66521;SDS011;53349;53.538;8.584;2024-01-10T02:11:45;37.22;;;9.88;;
66521;SDS011;53349;53.538;8.584;2024-01-10T02:14:10;34.00;;;9.40;;
66521;SDS011;53349;53.538;8.584;2024-01-10T02:16:37;38.37;;;10.97;;
66521;SDS011;53349;53.538;8.584;2024-01-10T02:19:16;34.97;;;9.38;;
66521;SDS011;53349;53.538;8.584;2024-01-10T02:21:42;31.80;;;10.20;;
66521;SDS011;53349;53.538;8.584;2024-01-10T02:24:07;32.53;;;8.73;;
66521;SDS011;53349;53.538;8.584;2024-01-10T02:26:32;31.00;;;10.07;;
66521;SDS011;53349;53.538;8.584;2024-01-10T02:28:58;35.28;;;10.07;;
66521;SDS011;53349;53.538;8.584;2024-01-10T02:31:24;31.20;;;9.80;;
66521;SDS011;53349;53.538;8.584;2024-01-10T02:33:49;37.23;;;9.47;;
66521;SDS011;53349;53.538;8.584;2024-01-10T02:36:14;31.10;;;9.30;;
66521;SDS011;53349;53.538;8.584;2024-01-10T02:38:39;34.73;;;9.30;;
66521;SDS011;53349;53.538;8.584;2024-01-10T02:41:05;33.00;;;9.07;;
66521;SDS011;53349;53.538;8.584;2024-01-10T02:43:30;35.00;;;10.33;;
66521;SDS011;53349;53.538;8.584;2024-01-10T02:45:55;35.40;;;9.33;;
66521;SDS011;53349;53.538;8.584;2024-01-10T02:48:21;29.40;;;9.50;;
66521;SDS011;53349;53.538;8.584;2024-01-10T02:50:50;32.60;;;9.70;;
66521;SDS011;53349;53.538;8.584;2024-01-10T02:53:15;35.90;;;9.80;;
66521;SDS011;53349;53.538;8.584;2024-01-10T02:55:40;34.27;;;9.83;;
66521;SDS011;53349;53.538;8.584;2024-01-10T02:58:05;36.30;;;10.17;;
66521;SDS011;53349;53.538;8.584;2024-01-10T03:00:31;37.03;;;9.03;;
66521;SDS011;53349;53.538;8.584;2024-01-10T03:02:56;34.40;;;9.73;;
66521;SDS011;53349;53.538;8.584;2024-01-10T03:05:27;38.53;;;9.88;;
66521;SDS011;53349;53.538;8.584;2024-01-10T03:07:53;33.00;;;10.18;;
66521;SDS011;53349;53.538;8.584;2024-01-10T03:10:19;34.73;;;9.97;;
66521;SDS011;53349;53.538;8.584;2024-01-10T03:12:44;34.13;;;10.43;;
66521;SDS011;53349;53.538;8.584;2024-01-10T03:15:09;33.00;;;9.07;;
66521;SDS011;53349;53.538;8.584;2024-01-10T03:17:34;34.93;;;10.20;;
66521;SDS011;53349;53.538;8.584;2024-01-10T03:20:00;37.60;;;9.17;;
66521;SDS011;53349;53.538;8.584;2024-01-10T03:22:25;40.57;;;10.30;;
66521;SDS011;53349;53.538;8.584;2024-01-10T03:24:51;35.00;;;10.70;;
66521;SDS011;53349;53.538;8.584;2024-01-10T03:27:19;41.03;;;10.52;;
66521;SDS011;53349;53.538;8.584;2024-01-10T03:29:48;36.15;;;9.57;;
66521;SDS011;53349;53.538;8.584;2024-01-10T03:32:15;35.90;;;10.63;;
66521;SDS011;53349;53.538;8.584;2024-01-10T03:34:41;38.80;;;10.07;;
66521;SDS011;53349;53.538;8.584;2024-01-10T03:37:08;36.93;;;9.93;;
66521;SDS011;53349;53.538;8.584;2024-01-10T03:39:33;37.50;;;8.95;;
66521;SDS011;53349;53.538;8.584;2024-01-10T03:41:59;35.33;;;9.57;;
66521;SDS011;53349;53.538;8.584;2024-01-10T03:44:25;35.53;;;9.90;;
66521;SDS011;53349;53.538;8.584;2024-01-10T03:46:51;31.52;;;9.27;;
66521;SDS011;53349;53.538;8.584;2024-01-10T03:49:17;33.42;;;10.55;;
66521;SDS011;53349;53.538;8.584;2024-01-10T03:51:42;38.60;;;11.30;;
66521;SDS011;53349;53.538;8.584;2024-01-10T03:54:08;35.30;;;9.13;;
66521;SDS011;53349;53.538;8.584;2024-01-10T03:56:33;30.90;;;9.37;;
66521;SDS011;53349;53.538;8.584;2024-01-10T03:58:58;26.47;;;8.57;;
66521;SDS011;53349;53.538;8.584;2024-01-10T04:01:24;32.85;;;9.68;;
66521;SDS011;53349;53.538;8.584;2024-01-10T04:03:49;32.35;;;8.40;;
66521;SDS011;53349;53.538;8.584;2024-01-10T04:06:15;36.07;;;10.17;;
66521;SDS011;53349;53.538;8.584;2024-01-10T04:08:40;30.50;;;9.00;;
66521;SDS011;53349;53.538;8.584;2024-01-10T04:11:05;35.83;;;10.70;;
66521;SDS011;53349;53.538;8.584;2024-01-10T04:13:32;37.47;;;10.00;;
66521;SDS011;53349;53.538;8.584;2024-01-10T04:15:57;38.55;;;10.38;;
66521;SDS011;53349;53.538;8.584;2024-01-10T04:18:23;37.87;;;9.27;;
66521;SDS011;53349;53.538;8.584;2024-01-10T04:20:49;36.20;;;10.18;;
66521;SDS011;53349;53.538;8.584;2024-01-10T04:23:14;35.95;;;9.85;;
66521;SDS011;53349;53.538;8.584;2024-01-10T04:25:39;33.43;;;8.83;;
66521;SDS011;53349;53.538;8.584;2024-01-10T04:28:10;25.00;;;8.40;;
66521;SDS011;53349;53.538;8.584;2024-01-10T04:30:37;32.80;;;9.52;;
66521;SDS011;53349;53.538;8.584;2024-01-10T04:33:03;23.93;;;6.97;;
66521;SDS011;53349;53.538;8.584;2024-01-10T04:35:29;22.93;;;8.27;;
66521;SDS011;53349;53.538;8.584;2024-01-10T04:37:57;34.27;;;10.23;;
66521;SDS011;53349;53.538;8.584;2024-01-10T04:40:22;28.58;;;8.88;;
66521;SDS011;53349;53.538;8.584;2024-01-10T04:42:48;26.45;;;7.95;;
66521;SDS011;53349;53.538;8.584;2024-01-10T04:45:13;27.83;;;8.50;;
66521;SDS011;53349;53.538;8.584;2024-01-10T04:47:38;29.07;;;8.70;;
66521;SDS011;53349;53.538;8.584;2024-01-10T04:50:04;30.57;;;9.60;;
66521;SDS011;53349;53.538;8.584;2024-01-10T04:52:29;30.97;;;8.17;;
66521;SDS011;53349;53.538;8.584;2024-01-10T04:54:56;33.30;;;9.53;;
66521;SDS011;53349;53.538;8.584;2024-01-10T04:57:21;36.80;;;10.75;;
66521;SDS011;53349;53.538;8.584;2024-01-10T04:59:47;40.70;;;10.53;;
66521;SDS011;53349;53.538;8.584;2024-01-10T05:02:13;34.38;;;9.50;;
66521;SDS011;53349;53.538;8.584;2024-01-10T05:04:39;28.25;;;9.70;;
66521;SDS011;53349;53.538;8.584;2024-01-10T05:07:05;30.90;;;9.25;;
66521;SDS011;53349;53.538;8.584;2024-01-10T05:09:30;35.50;;;8.60;;
66521;SDS011;53349;53.538;8.584;2024-01-10T05:11:56;36.17;;;8.80;;
66521;SDS011;53349;53.538;8.584;2024-01-10T05:14:21;36.73;;;9.70;;
66521;SDS011;53349;53.538;8.584;2024-01-10T05:16:47;32.13;;;8.73;;
66521;SDS011;53349;53.538;8.584;2024-01-10T05:19:13;31.75;;;9.55;;
66521;SDS011;53349;53.538;8.584;2024-01-10T05:21:39;33.20;;;9.27;;
66521;SDS011;53349;53.538;8.584;2024-01-10T05:24:05;34.00;;;9.43;;
66521;SDS011;53349;53.538;8.584;2024-01-10T05:26:30;32.50;;;9.90;;
66521;SDS011;53349;53.538;8.584;2024-01-10T05:28:55;33.30;;;9.20;;
66521;SDS011;53349;53.538;8.584;2024-01-10T05:31:21;32.43;;;9.00;;
66521;SDS011;53349;53.538;8.584;2024-01-10T05:33:47;33.70;;;8.97;;
66521;SDS011;53349;53.538;8.584;2024-01-10T05:36:12;33.47;;;9.00;;
66521;SDS011;53349;53.538;8.584;2024-01-10T05:38:37;27.80;;;8.63;;
66521;SDS011;53349;53.538;8.584;2024-01-10T05:41:03;36.20;;;9.60;;
66521;SDS011;53349;53.538;8.584;2024-01-10T05:43:29;37.22;;;10.45;;
66521;SDS011;53349;53.538;8.584;2024-01-10T05:45:54;31.77;;;9.17;;
66521;SDS011;53349;53.538;8.584;2024-01-10T05:48:20;36.10;;;9.87;;
66521;SDS011;53349;53.538;8.584;2024-01-10T05:50:45;30.03;;;8.90;;
66521;SDS011;53349;53.538;8.584;2024-01-10T05:53:10;31.43;;;9.23;;
66521;SDS011;53349;53.538;8.584;2024-01-10T05:55:35;34.70;;;9.97;;
66521;SDS011;53349;53.538;8.584;2024-01-10T05:58:01;32.92;;;9.13;;
66521;SDS011;53349;53.538;8.584;2024-01-10T06:00:26;29.92;;;8.38;;
66521;SDS011;53349;53.538;8.584;2024-01-10T06:02:54;33.63;;;8.77;;
66521;SDS011;53349;53.538;8.584;2024-01-10T06:05:21;28.20;;;9.32;;
66521;SDS011;53349;53.538;8.584;2024-01-10T06:07:46;30.95;;;9.90;;
66521;SDS011;53349;53.538;8.584;2024-01-10T06:10:11;31.43;;;8.93;;
66521;SDS011;53349;53.538;8.584;2024-01-10T06:12:37;31.77;;;8.67;;
66521;SDS011;53349;53.538;8.584;2024-01-10T06:15:02;31.43;;;9.37;;
66521;SDS011;53349;53.538;8.584;2024-01-10T06:17:27;36.67;;;9.80;;
66521;SDS011;53349;53.538;8.584;2024-01-10T06:19:53;33.17;;;9.33;;
66521;SDS011;53349;53.538;8.584;2024-01-10T06:22:19;32.42;;;9.57;;
66521;SDS011;53349;53.538;8.584;2024-01-10T06:24:45;27.00;;;7.78;;
66521;SDS011;53349;53.538;8.584;2024-01-10T06:27:11;26.80;;;8.30;;
66521;SDS011;53349;53.538;8.584;2024-01-10T06:29:36;23.73;;;7.03;;
66521;SDS011;53349;53.538;8.584;2024-01-10T06:32:03;26.90;;;8.60;;
66521;SDS011;53349;53.538;8.584;2024-01-10T06:34:30;32.22;;;9.38;;
66521;SDS011;53349;53.538;8.584;2024-01-10T06:36:55;32.92;;;10.20;;
66521;SDS011;53349;53.538;8.584;2024-01-10T06:39:20;33.67;;;10.17;;
66521;SDS011;53349;53.538;8.584;2024-01-10T06:41:47;30.23;;;8.43;;
66521;SDS011;53349;53.538;8.584;2024-01-10T06:44:14;33.30;;;9.30;;
66521;SDS011;53349;53.538;8.584;2024-01-10T06:46:40;37.28;;;9.85;;
66521;SDS011;53349;53.538;8.584;2024-01-10T06:49:06;32.83;;;9.53;;
66521;SDS011;53349;53.538;8.584;2024-01-10T06:51:32;27.52;;;8.50;;
66521;SDS011;53349;53.538;8.584;2024-01-10T06:53:57;32.23;;;10.17;;
66521;SDS011;53349;53.538;8.584;2024-01-10T06:56:22;31.27;;;9.27;;
66521;SDS011;53349;53.538;8.584;2024-01-10T06:58:49;34.67;;;8.97;;
66521;SDS011;53349;53.538;8.584;2024-01-10T07:01:18;30.40;;;9.35;;
66521;SDS011;53349;53.538;8.584;2024-01-10T07:03:48;34.05;;;10.23;;
66521;SDS011;53349;53.538;8.584;2024-01-10T07:06:19;30.52;;;9.18;;
66521;SDS011;53349;53.538;8.584;2024-01-10T07:08:48;29.60;;;8.80;;
66521;SDS011;53349;53.538;8.584;2024-01-10T07:11:13;37.70;;;11.40;;
66521;SDS011;53349;53.538;8.584;2024-01-10T07:13:40;39.73;;;11.13;;
66521;SDS011;53349;53.538;8.584;2024-01-10T07:16:05;35.58;;;9.75;;
66521;SDS011;53349;53.538;8.584;2024-01-10T07:18:32;25.33;;;8.27;;
66521;SDS011;53349;53.538;8.584;2024-01-10T07:20:59;28.98;;;8.90;;
66521;SDS011;53349;53.538;8.584;2024-01-10T07:23:24;31.98;;;10.30;;
66521;SDS011;53349;53.538;8.584;2024-01-10T07:25:49;30.07;;;10.40;;
66521;SDS011;53349;53.538;8.584;2024-01-10T07:28:15;31.57;;;9.80;;
66521;SDS011;53349;53.538;8.584;2024-01-10T07:30:40;32.73;;;9.40;;
66521;SDS011;53349;53.538;8.584;2024-01-10T07:33:10;33.78;;;10.45;;
66521;SDS011;53349;53.538;8.584;2024-01-10T07:35:36;30.83;;;10.17;;
66521;SDS011;53349;53.538;8.584;2024-01-10T07:38:03;33.30;;;9.95;;
66521;SDS011;53349;53.538;8.584;2024-01-10T07:40:28;32.20;;;9.75;;
66521;SDS011;53349;53.538;8.584;2024-01-10T07:42:54;32.43;;;9.60;;
66521;SDS011;53349;53.538;8.584;2024-01-10T07:45:20;30.38;;;9.80;;
66521;SDS011;53349;53.538;8.584;2024-01-10T07:47:45;23.07;;;7.93;;
66521;SDS011;53349;53.538;8.584;2024-01-10T07:50:10;32.73;;;9.70;;
66521;SDS011;53349;53.538;8.584;2024-01-10T07:52:36;26.20;;;9.00;;
66521;SDS011;53349;53.538;8.584;2024-01-10T07:55:01;30.37;;;9.53;;
66521;SDS011;53349;53.538;8.584;2024-01-10T07:57:27;29.48;;;9.32;;
66521;SDS011;53349;53.538;8.584;2024-01-10T07:59:55;28.83;;;9.07;;
66521;SDS011;53349;53.538;8.584;2024-01-10T08:02:21;31.30;;;10.07;;
66521;SDS011;53349;53.538;8.584;2024-01-10T08:04:49;28.53;;;9.60;;
66521;SDS011;53349;53.538;8.584;2024-01-10T08:07:15;33.35;;;10.43;;
66521;SDS011;53349;53.538;8.584;2024-01-10T08:09:43;35.53;;;10.13;;
66521;SDS011;53349;53.538;8.584;2024-01-10T08:12:08;32.85;;;9.85;;
66521;SDS011;53349;53.538;8.584;2024-01-10T08:14:37;35.33;;;11.00;;
66521;SDS011;53349;53.538;8.584;2024-01-10T08:17:02;31.63;;;9.63;;
66521;SDS011;53349;53.538;8.584;2024-01-10T08:19:28;32.70;;;10.27;;
66521;SDS011;53349;53.538;8.584;2024-01-10T08:21:53;33.63;;;10.37;;
66521;SDS011;53349;53.538;8.584;2024-01-10T08:24:20;33.03;;;10.13;;
66521;SDS011;53349;53.538;8.584;2024-01-10T08:26:48;34.93;;;10.63;;
66521;SDS011;53349;53.538;8.584;2024-01-10T08:29:14;34.28;;;11.18;;
66521;SDS011;53349;53.538;8.584;2024-01-10T08:31:39;32.73;;;9.97;;
66521;SDS011;53349;53.538;8.584;2024-01-10T08:34:06;35.40;;;12.03;;
66521;SDS011;53349;53.538;8.584;2024-01-10T08:36:31;30.63;;;10.70;;
66521;SDS011;53349;53.538;8.584;2024-01-10T08:38:57;29.13;;;10.03;;
66521;SDS011;53349;53.538;8.584;2024-01-10T08:41:24;26.20;;;9.93;;
66521;SDS011;53349;53.538;8.584;2024-01-10T08:43:49;32.30;;;10.20;;
66521;SDS011;53349;53.538;8.584;2024-01-10T08:46:14;28.50;;;9.10;;
66521;SDS011;53349;53.538;8.584;2024-01-10T08:48:41;26.63;;;9.23;;
66521;SDS011;53349;53.538;8.584;2024-01-10T08:51:07;31.77;;;10.25;;
66521;SDS011;53349;53.538;8.584;2024-01-10T08:53:32;30.23;;;9.43;;
66521;SDS011;53349;53.538;8.584;2024-01-10T08:55:58;31.30;;;10.77;;
66521;SDS011;53349;53.538;8.584;2024-01-10T08:58:23;29.27;;;9.27;;
66521;SDS011;53349;53.538;8.584;2024-01-10T09:00:48;30.10;;;10.77;;
66521;SDS011;53349;53.538;8.584;2024-01-10T09:03:13;31.50;;;10.20;;
66521;SDS011;53349;53.538;8.584;2024-01-10T09:05:41;30.45;;;10.68;;
66521;SDS011;53349;53.538;8.584;2024-01-10T09:08:06;30.08;;;10.43;;
66521;SDS011;53349;53.538;8.584;2024-01-10T09:10:31;32.93;;;11.37;;
66521;SDS011;53349;53.538;8.584;2024-01-10T09:13:00;28.77;;;10.67;;
66521;SDS011;53349;53.538;8.584;2024-01-10T09:15:25;29.83;;;10.90;;
66521;SDS011;53349;53.538;8.584;2024-01-10T09:17:52;28.25;;;10.10;;
66521;SDS011;53349;53.538;8.584;2024-01-10T09:20:18;33.58;;;11.10;;
66521;SDS011;53349;53.538;8.584;2024-01-10T09:22:44;34.07;;;10.43;;
66521;SDS011;53349;53.538;8.584;2024-01-10T09:25:10;36.90;;;11.67;;
66521;SDS011;53349;53.538;8.584;2024-01-10T09:27:36;30.25;;;10.50;;
66521;SDS011;53349;53.538;8.584;2024-01-10T09:30:04;29.20;;;10.52;;
66521;SDS011;53349;53.538;8.584;2024-01-10T09:32:31;28.63;;;9.68;;
66521;SDS011;53349;53.538;8.584;2024-01-10T09:34:56;27.17;;;9.27;;
66521;SDS011;53349;53.538;8.584;2024-01-10T09:37:21;30.07;;;9.93;;
66521;SDS011;53349;53.538;8.584;2024-01-10T09:39:46;30.47;;;9.07;;
66521;SDS011;53349;53.538;8.584;2024-01-10T09:42:13;27.27;;;9.73;;
66521;SDS011;53349;53.538;8.584;2024-01-10T09:44:42;30.63;;;10.50;;
66521;SDS011;53349;53.538;8.584;2024-01-10T09:47:08;26.27;;;9.40;;
66521;SDS011;53349;53.538;8.584;2024-01-10T09:49:35;28.50;;;9.93;;
66521;SDS011;53349;53.538;8.584;2024-01-10T09:52:02;27.55;;;9.68;;
66521;SDS011;53349;53.538;8.584;2024-01-10T09:54:29;28.33;;;10.02;;
66521;SDS011;53349;53.538;8.584;2024-01-10T09:56:56;26.83;;;9.82;;
66521;SDS011;53349;53.538;8.584;2024-01-10T09:59:21;30.90;;;9.60;;
66521;SDS011;53349;53.538;8.584;2024-01-10T10:01:46;34.27;;;10.97;;
66521;SDS011;53349;53.538;8.584;2024-01-10T10:04:13;29.37;;;9.73;;
66521;SDS011;53349;53.538;8.584;2024-01-10T10:06:38;29.52;;;10.13;;
66521;SDS011;53349;53.538;8.584;2024-01-10T10:09:04;30.27;;;10.80;;
66521;SDS011;53349;53.538;8.584;2024-01-10T10:11:29;32.17;;;10.30;;
66521;SDS011;53349;53.538;8.584;2024-01-10T10:13:54;26.97;;;9.63;;
66521;SDS011;53349;53.538;8.584;2024-01-10T10:16:23;29.57;;;11.00;;
66521;SDS011;53349;53.538;8.584;2024-01-10T10:18:51;25.13;;;8.57;;
66521;SDS011;53349;53.538;8.584;2024-01-10T10:21:16;26.77;;;9.50;;
66521;SDS011;53349;53.538;8.584;2024-01-10T10:23:43;29.38;;;9.35;;
66521;SDS011;53349;53.538;8.584;2024-01-10T10:26:21;27.60;;;9.15;;
66521;SDS011;53349;53.538;8.584;2024-01-10T10:28:49;26.70;;;9.33;;
66521;SDS011;53349;53.538;8.584;2024-01-10T10:31:15;26.13;;;9.55;;
66521;SDS011;53349;53.538;8.584;2024-01-10T10:33:40;22.97;;;9.00;;
66521;SDS011;53349;53.538;8.584;2024-01-10T10:36:09;25.88;;;9.80;;
66521;SDS011;53349;53.538;8.584;2024-01-10T10:38:35;26.67;;;9.30;;
66521;SDS011;53349;53.538;8.584;2024-01-10T10:41:04;23.13;;;8.20;;
66521;SDS011;53349;53.538;8.584;2024-01-10T10:43:33;25.58;;;10.10;;
66521;SDS011;53349;53.538;8.584;2024-01-10T10:45:59;27.23;;;9.60;;
66521;SDS011;53349;53.538;8.584;2024-01-10T10:48:25;25.98;;;9.90;;
66521;SDS011;53349;53.538;8.584;2024-01-10T10:51:01;23.08;;;8.85;;
66521;SDS011;53349;53.538;8.584;2024-01-10T10:53:29;26.93;;;9.63;;
66521;SDS011;53349;53.538;8.584;2024-01-10T10:55:56;27.60;;;10.02;;
66521;SDS011;53349;53.538;8.584;2024-01-10T10:58:23;26.95;;;10.35;;
66521;SDS011;53349;53.538;8.584;2024-01-10T11:00:49;24.08;;;8.57;;
66521;SDS011;53349;53.538;8.584;2024-01-10T11:03:14;24.67;;;9.43;;
66521;SDS011;53349;53.538;8.584;2024-01-10T11:05:41;24.73;;;9.10;;
66521;SDS011;53349;53.538;8.584;2024-01-10T11:08:07;25.45;;;9.07;;
66521;SDS011;53349;53.538;8.584;2024-01-10T11:10:34;22.77;;;9.23;;
66521;SDS011;53349;53.538;8.584;2024-01-10T11:15:51;26.67;;;9.45;;
66521;SDS011;53349;53.538;8.584;2024-01-10T11:25:58;26.90;;;10.00;;
66521;SDS011;53349;53.538;8.584;2024-01-10T11:28:24;24.30;;;9.80;;
66521;SDS011;53349;53.538;8.584;2024-01-10T11:30:51;24.02;;;9.07;;
66521;SDS011;53349;53.538;8.584;2024-01-10T11:33:30;21.00;;;7.88;;
66521;SDS011;53349;53.538;8.584;2024-01-10T11:39:03;22.35;;;8.90;;
66521;SDS011;53349;53.538;8.584;2024-01-10T11:44:43;26.70;;;9.60;;
66521;SDS011;53349;53.538;8.584;2024-01-10T11:46:52;22.60;;;9.30;;
66521;SDS011;53349;53.538;8.584;2024-01-10T11:49:18;22.67;;;9.07;;
66521;SDS011;53349;53.538;8.584;2024-01-10T11:51:44;23.23;;;8.95;;
66521;SDS011;53349;53.538;8.584;2024-01-10T11:54:09;25.92;;;9.43;;
66521;SDS011;53349;53.538;8.584;2024-01-10T11:56:41;21.13;;;8.73;;
66521;SDS011;53349;53.538;8.584;2024-01-10T11:59:07;25.37;;;8.37;;
66521;SDS011;53349;53.538;8.584;2024-01-10T12:01:33;24.10;;;8.35;;
66521;SDS011;53349;53.538;8.584;2024-01-10T12:03:59;25.52;;;9.23;;
66521;SDS011;53349;53.538;8.584;2024-01-10T12:06:27;21.33;;;8.00;;
66521;SDS011;53349;53.538;8.584;2024-01-10T12:08:52;23.02;;;9.10;;
66521;SDS011;53349;53.538;8.584;2024-01-10T12:11:18;26.93;;;9.13;;
66521;SDS011;53349;53.538;8.584;2024-01-10T12:13:43;18.63;;;8.80;;
66521;SDS011;53349;53.538;8.584;2024-01-10T12:16:08;24.37;;;8.90;;
66521;SDS011;53349;53.538;8.584;2024-01-10T12:18:33;23.67;;;8.80;;
66521;SDS011;53349;53.538;8.584;2024-01-10T12:20:59;24.07;;;8.90;;
66521;SDS011;53349;53.538;8.584;2024-01-10T12:23:24;25.77;;;8.38;;
66521;SDS011;53349;53.538;8.584;2024-01-10T12:25:49;24.83;;;8.77;;
66521;SDS011;53349;53.538;8.584;2024-01-10T12:28:16;24.67;;;8.70;;
66521;SDS011;53349;53.538;8.584;2024-01-10T12:30:41;24.23;;;8.40;;
66521;SDS011;53349;53.538;8.584;2024-01-10T12:33:08;22.80;;;8.87;;
66521;SDS011;53349;53.538;8.584;2024-01-10T12:35:34;22.52;;;8.73;;
66521;SDS011;53349;53.538;8.584;2024-01-10T12:37:59;23.80;;;9.33;;
66521;SDS011;53349;53.538;8.584;2024-01-10T12:40:24;25.60;;;8.23;;
66521;SDS011;53349;53.538;8.584;2024-01-10T12:43:00;26.23;;;8.30;;
66521;SDS011;53349;53.538;8.584;2024-01-10T12:45:26;21.20;;;7.50;;
66521;SDS011;53349;53.538;8.584;2024-01-10T12:47:52;20.90;;;8.10;;
66521;SDS011;53349;53.538;8.584;2024-01-10T12:50:18;25.10;;;8.20;;
66521;SDS011;53349;53.538;8.584;2024-01-10T12:52:43;20.13;;;7.33;;
66521;SDS011;53349;53.538;8.584;2024-01-10T12:55:09;19.80;;;7.88;;
66521;SDS011;53349;53.538;8.584;2024-01-10T12:57:37;22.70;;;7.70;;
66521;SDS011;53349;53.538;8.584;2024-01-10T13:00:05;22.42;;;7.95;;
66521;SDS011;53349;53.538;8.584;2024-01-10T13:02:35;23.80;;;8.00;;
66521;SDS011;53349;53.538;8.584;2024-01-10T13:05:03;23.33;;;8.57;;
66521;SDS011;53349;53.538;8.584;2024-01-10T13:07:30;24.07;;;8.03;;
66521;SDS011;53349;53.538;8.584;2024-01-10T13:09:55;23.98;;;8.82;;
66521;SDS011;53349;53.538;8.584;2024-01-10T13:12:20;23.23;;;8.13;;
66521;SDS011;53349;53.538;8.584;2024-01-10T13:14:46;20.88;;;7.82;;
66521;SDS011;53349;53.538;8.584;2024-01-10T13:17:11;25.30;;;8.30;;
66521;SDS011;53349;53.538;8.584;2024-01-10T13:19:36;23.73;;;9.00;;
66521;SDS011;53349;53.538;8.584;2024-01-10T13:22:02;23.57;;;8.70;;
66521;SDS011;53349;53.538;8.584;2024-01-10T13:24:27;20.03;;;8.23;;
66521;SDS011;53349;53.538;8.584;2024-01-10T13:26:58;22.88;;;8.40;;
66521;SDS011;53349;53.538;8.584;2024-01-10T13:29:23;24.40;;;9.03;;
66521;SDS011;53349;53.538;8.584;2024-01-10T13:31:48;21.73;;;7.87;;
66521;SDS011;53349;53.538;8.584;2024-01-10T13:34:15;22.77;;;8.70;;
66521;SDS011;53349;53.538;8.584;2024-01-10T13:36:40;21.85;;;8.57;;
66521;SDS011;53349;53.538;8.584;2024-01-10T13:39:05;22.20;;;8.10;;
66521;SDS011;53349;53.538;8.584;2024-01-10T13:41:30;21.47;;;8.20;;
66521;SDS011;53349;53.538;8.584;2024-01-10T13:43:56;25.20;;;8.77;;
66521;SDS011;53349;53.538;8.584;2024-01-10T13:46:21;23.70;;;8.77;;
66521;SDS011;53349;53.538;8.584;2024-01-10T13:48:46;22.43;;;7.97;;
66521;SDS011;53349;53.538;8.584;2024-01-10T13:51:11;25.40;;;8.63;;
66521;SDS011;53349;53.538;8.584;2024-01-10T13:53:40;25.27;;;9.05;;
66521;SDS011;53349;53.538;8.584;2024-01-10T13:56:05;21.73;;;8.27;;
66521;SDS011;53349;53.538;8.584;2024-01-10T13:58:31;20.55;;;7.90;;
66521;SDS011;53349;53.538;8.584;2024-01-10T14:00:57;21.23;;;8.60;;
66521;SDS011;53349;53.538;8.584;2024-01-10T14:03:22;20.37;;;8.40;;
66521;SDS011;53349;53.538;8.584;2024-01-10T14:05:47;20.77;;;8.30;;
66521;SDS011;53349;53.538;8.584;2024-01-10T14:08:15;20.02;;;8.35;;
66521;SDS011;53349;53.538;8.584;2024-01-10T14:10:40;19.90;;;8.27;;
66521;SDS011;53349;53.538;8.584;2024-01-10T14:13:06;20.90;;;8.10;;
66521;SDS011;53349;53.538;8.584;2024-01-10T14:15:32;20.60;;;8.43;;
66521;SDS011;53349;53.538;8.584;2024-01-10T14:17:58;19.98;;;7.93;;
66521;SDS011;53349;53.538;8.584;2024-01-10T14:20:23;23.27;;;8.50;;
66521;SDS011;53349;53.538;8.584;2024-01-10T14:22:48;20.30;;;7.93;;
66521;SDS011;53349;53.538;8.584;2024-01-10T14:25:14;20.63;;;8.30;;
66521;SDS011;53349;53.538;8.584;2024-01-10T14:27:40;21.13;;;7.53;;
66521;SDS011;53349;53.538;8.584;2024-01-10T14:30:06;24.02;;;9.18;;
66521;SDS011;53349;53.538;8.584;2024-01-10T14:32:31;20.50;;;8.40;;
66521;SDS011;53349;53.538;8.584;2024-01-10T14:34:56;19.87;;;8.07;;
66521;SDS011;53349;53.538;8.584;2024-01-10T14:37:23;19.73;;;7.88;;
66521;SDS011;53349;53.538;8.584;2024-01-10T14:39:49;23.65;;;9.15;;